createdAt,value
2022-10-11T03:55:10.650Z,97641.75
2022-10-11T03:57:57.522Z,97650.78
2022-10-11T04:00:44.373Z,97651.78
2022-10-11T04:03:31.046Z,97659.59
2022-10-11T04:06:17.686Z,97663.28
2022-10-11T04:09:05.009Z,97660.63
2022-10-11T04:11:51.681Z,97667.78
2022-10-11T04:14:38.323Z,97666.13
2022-10-11T04:17:24.969Z,97660.97
2022-10-11T04:20:11.721Z,97668.16
2022-10-11T04:22:58.373Z,97662.81
2022-10-11T04:25:45.509Z,97670.81
2022-10-11T04:28:32.513Z,97675.31
2022-10-11T04:31:19.238Z,97664.66
2022-10-11T04:34:05.940Z,97663.00
2022-10-11T04:36:52.560Z,97658.50
2022-10-11T04:39:39.217Z,97670.16
2022-10-11T04:42:25.858Z,97671.00
2022-10-11T04:45:12.550Z,97674.50
2022-10-11T04:47:59.221Z,97673.66
2022-10-11T04:50:46.049Z,97676.34
2022-10-11T04:53:32.691Z,97683.47
2022-10-11T04:56:19.433Z,97679.81
2022-10-11T04:59:06.144Z,97673.66
2022-10-11T05:01:53.196Z,97675.47
2022-10-11T05:04:39.918Z,97677.31
2022-10-11T05:07:26.565Z,97676.50
2022-10-11T05:10:13.203Z,97676.50
2022-10-11T05:12:59.841Z,97680.00
2022-10-11T05:15:46.473Z,97682.66
2022-10-11T05:18:33.125Z,97678.34
2022-10-11T05:21:20.711Z,97684.50
2022-10-11T05:24:07.424Z,97682.66
2022-10-11T05:26:54.053Z,97693.31
2022-10-11T05:29:40.719Z,97703.97
2022-10-11T05:32:28.104Z,97697.81
2022-10-11T05:35:14.945Z,97695.97
2022-10-11T05:38:01.721Z,97695.34
2022-10-11T05:40:48.628Z,97698.66
2022-10-11T05:43:35.293Z,97707.47
2022-10-11T05:46:22.209Z,97695.16
2022-10-11T05:49:08.876Z,97708.50
2022-10-11T05:51:55.549Z,97699.66
2022-10-11T05:54:42.209Z,97704.19
2022-10-11T05:57:28.948Z,97707.47
2022-10-11T06:00:15.774Z,97720.16
2022-10-11T06:03:02.426Z,97722.00
2022-10-11T06:05:52.136Z,97727.34
2022-10-11T06:08:41.374Z,97730.00
2022-10-11T06:11:28.144Z,97731.00
2022-10-11T06:14:14.827Z,97743.34
2022-10-11T06:17:01.488Z,97752.16
2022-10-11T06:19:48.129Z,97750.50
2022-10-11T06:22:34.775Z,97749.47
2022-10-11T06:25:21.633Z,97753.16
2022-10-11T06:28:08.323Z,97759.31
2022-10-11T06:30:55.515Z,97759.31
2022-10-11T06:33:42.371Z,97762.81
2022-10-11T06:36:29.216Z,97765.47
2022-10-11T06:39:15.894Z,97769.78
2022-10-11T06:42:02.531Z,97766.31
2022-10-11T06:44:49.205Z,97770.63
2022-10-11T06:47:35.869Z,97782.09
2022-10-11T06:50:40.707Z,97783.78
2022-10-11T06:53:29.215Z,97782.97
2022-10-11T06:56:15.864Z,97796.09
2022-10-11T06:59:03.775Z,97792.59
2022-10-11T07:01:50.476Z,97804.91
2022-10-11T07:04:37.161Z,97796.91
2022-10-11T07:07:23.809Z,97795.91
2022-10-11T07:10:10.577Z,97806.56
2022-10-11T07:12:57.361Z,97803.75
2022-10-11T07:15:44.009Z,97816.06
2022-10-11T07:18:30.900Z,97808.88
2022-10-11T07:21:17.558Z,97820.38
2022-10-11T07:24:04.308Z,97820.38
2022-10-11T07:26:50.971Z,97819.38
2022-10-11T07:29:37.623Z,97821.03
2022-10-11T07:32:24.336Z,97821.03
2022-10-11T07:35:10.998Z,97823.69
2022-10-11T07:37:57.667Z,97829.03
2022-10-11T07:40:44.977Z,97826.19
2022-10-11T07:43:31.691Z,97832.38
2022-10-11T07:46:18.723Z,97841.81
2022-10-11T07:49:05.448Z,97841.81
2022-10-11T07:51:52.105Z,97839.97
2022-10-11T07:54:40.063Z,97838.16
2022-10-11T07:57:26.718Z,97836.97
2022-10-11T08:00:13.767Z,97836.97
2022-10-11T08:03:06.315Z,97838.66
2022-10-11T08:05:53.045Z,97840.28
2022-10-11T08:08:47.097Z,97840.28
2022-10-11T08:11:34.914Z,97837.44
2022-10-11T08:14:22.081Z,97836.44
2022-10-11T08:17:08.716Z,97838.94
2022-10-11T08:19:55.415Z,97846.72
2022-10-11T08:22:42.098Z,97853.75
2022-10-11T08:25:28.778Z,97855.19
2022-10-11T08:28:18.533Z,97858.69
2022-10-11T08:31:05.319Z,97852.19
2022-10-11T08:33:51.989Z,97859.84
2022-10-11T08:36:38.823Z,97857.28
2022-10-11T08:39:25.509Z,97862.47
2022-10-11T08:42:30.580Z,97871.16
2022-10-11T08:45:43.423Z,97865.47
2022-10-11T08:48:32.600Z,97868.16
2022-10-11T08:51:28.091Z,97871.38
2022-10-11T08:54:16.933Z,97873.75
2022-10-11T08:57:04.652Z,97871.03
2022-10-11T08:59:56.279Z,97882.81
2022-10-11T09:03:07.621Z,97881.44
2022-10-11T09:05:58.112Z,97871.19
2022-10-11T09:08:48.496Z,97873.34
2022-10-11T09:11:47.335Z,97871.94
2022-10-11T09:14:34.082Z,97871.59
2022-10-11T09:17:33.706Z,97872.22
2022-10-11T09:20:41.510Z,97871.84
2022-10-11T09:23:39.346Z,97880.50
2022-10-11T09:26:28.964Z,97875.78
2022-10-11T09:29:25.764Z,97873.78
2022-10-11T09:32:13.411Z,97877.06
2022-10-11T09:35:01.867Z,97873.56
2022-10-11T09:37:51.211Z,97871.56
2022-10-11T09:40:56.740Z,97873.19
2022-10-11T09:43:50.012Z,97869.50
2022-10-11T09:46:45.699Z,97869.34
2022-10-11T09:49:43.520Z,97868.09
2022-10-11T09:52:30.200Z,97862.75
2022-10-11T09:55:30.155Z,97871.44
2022-10-11T09:58:30.392Z,97863.03
2022-10-11T10:01:23.869Z,97873.53
2022-10-11T10:04:11.847Z,97872.34
2022-10-11T10:07:10.272Z,97875.63
2022-10-11T10:09:57.420Z,97873.63
2022-10-11T10:12:44.117Z,97874.25
2022-10-11T10:15:32.114Z,97865.00
2022-10-11T10:18:20.829Z,97870.19
2022-10-11T10:21:08.758Z,97870.00
2022-10-11T10:23:55.667Z,97867.97
2022-10-11T10:26:42.501Z,97861.78
2022-10-11T10:29:29.154Z,97862.41
2022-10-11T10:32:23.555Z,97855.88
2022-10-11T10:35:15.111Z,97849.50
2022-10-11T10:38:14.058Z,97854.47
2022-10-11T10:41:09.617Z,97853.25
2022-10-11T10:43:56.810Z,97856.38
2022-10-11T10:46:46.348Z,97866.69
2022-10-11T10:49:54.225Z,97865.31
2022-10-11T10:53:00.466Z,97856.88
2022-10-11T10:55:52.594Z,97864.34
2022-10-11T10:58:57.756Z,97862.28
2022-10-11T11:02:21.402Z,97862.56
2022-10-11T11:05:18.731Z,97863.00
2022-10-11T11:08:20.682Z,97865.91
2022-10-11T11:11:13.250Z,97867.38
2022-10-11T11:14:12.981Z,97863.47
2022-10-11T11:17:09.126Z,97856.91
2022-10-11T11:20:14.643Z,97854.06
2022-10-11T11:23:08.133Z,97855.50
2022-10-11T11:25:57.463Z,97852.47
2022-10-11T11:28:44.560Z,97849.63
2022-10-11T11:31:38.624Z,97845.91
2022-10-11T11:34:29.270Z,97851.72
2022-10-11T11:37:26.220Z,97852.34
2022-10-11T11:40:19.663Z,97854.00
2022-10-11T11:43:18.330Z,97854.63
2022-10-11T11:46:15.648Z,97849.09
2022-10-11T11:49:03.687Z,97850.53
2022-10-11T11:51:50.327Z,97848.72
2022-10-11T11:54:49.335Z,97850.16
2022-10-11T11:57:49.857Z,97840.91
2022-10-11T12:00:58.718Z,97845.06
2022-10-11T12:03:49.714Z,97848.56
2022-10-11T12:06:47.678Z,97843.00
2022-10-11T12:09:39.789Z,97847.13
2022-10-11T12:12:27.757Z,97843.41
2022-10-11T12:15:17.454Z,97838.50
2022-10-11T12:18:05.714Z,97843.47
2022-10-11T12:21:06.371Z,97841.22
2022-10-11T12:23:53.911Z,97837.34
2022-10-11T12:26:41.702Z,97834.44
2022-10-11T12:29:43.428Z,97832.22
2022-10-11T12:32:36.536Z,97837.81
2022-10-11T12:35:35.044Z,97833.06
2022-10-11T12:38:30.831Z,97831.66
2022-10-11T12:41:18.167Z,97830.44
2022-10-11T12:44:12.797Z,97826.53
2022-10-11T12:47:00.940Z,97832.31
2022-10-11T12:49:50.228Z,97817.69
2022-10-11T12:52:42.053Z,97823.69
2022-10-11T12:55:28.975Z,97825.97
2022-10-11T12:58:19.042Z,97822.03
2022-10-11T13:01:10.494Z,97831.53
2022-10-11T13:03:58.096Z,97824.16
2022-10-11T13:06:49.354Z,97830.75
2022-10-11T13:09:39.188Z,97819.81
2022-10-11T13:12:25.879Z,97827.25
2022-10-11T13:15:13.673Z,97824.19
2022-10-11T13:18:00.781Z,97831.00
2022-10-11T13:20:47.509Z,97827.94
2022-10-11T13:23:38.004Z,97832.91
2022-10-11T13:26:25.538Z,97833.50
2022-10-11T13:29:16.676Z,97827.94
2022-10-11T13:32:23.621Z,97822.38
2022-10-11T13:35:23.930Z,97826.53
2022-10-11T13:38:15.232Z,97824.44
2022-10-11T13:41:06.035Z,97821.41
2022-10-11T13:43:53.282Z,97828.44
2022-10-11T13:46:41.819Z,97824.72
2022-10-11T13:49:31.368Z,97825.31
2022-10-11T13:52:18.003Z,97819.78
2022-10-11T13:55:04.773Z,97814.19
2022-10-11T13:57:54.421Z,97818.53
2022-10-11T14:00:41.138Z,97811.09
2022-10-11T14:03:37.979Z,97809.25
2022-10-11T14:06:25.052Z,97801.84
2022-10-11T14:09:16.474Z,97808.03
2022-10-11T14:12:21.878Z,97807.00
2022-10-11T14:15:27.114Z,97810.31
2022-10-11T14:18:33.181Z,97805.75
2022-10-11T14:21:20.200Z,97804.53
2022-10-11T14:24:08.030Z,97805.38
2022-10-11T14:26:54.743Z,97814.84
2022-10-11T14:30:00.314Z,97804.97
2022-10-11T14:32:51.914Z,97801.25
2022-10-11T14:35:38.726Z,97808.25
2022-10-11T14:38:25.458Z,97809.06
2022-10-11T14:41:12.199Z,97808.06
2022-10-11T14:43:58.913Z,97807.03
2022-10-11T14:46:46.054Z,97809.72
2022-10-11T14:49:34.508Z,97804.34
2022-10-11T14:52:21.737Z,97803.31
2022-10-11T14:55:08.426Z,97799.78
2022-10-11T14:57:56.393Z,97800.63
2022-10-11T15:00:43.234Z,97804.13
2022-10-11T15:03:29.942Z,97796.06
2022-10-11T15:06:18.479Z,97808.47
2022-10-11T15:09:05.828Z,97802.25
2022-10-11T15:11:54.212Z,97796.91
2022-10-11T15:14:41.035Z,97797.75
2022-10-11T15:17:27.746Z,97800.44
2022-10-11T15:20:19.336Z,97806.63
2022-10-11T15:23:07.759Z,97811.16
2022-10-11T15:25:54.426Z,97801.44
2022-10-11T15:28:41.235Z,97811.16
2022-10-11T15:31:31.079Z,97805.16
2022-10-11T15:34:17.877Z,97811.34
2022-10-11T15:37:04.535Z,97809.50
2022-10-11T15:39:51.196Z,97812.16
2022-10-11T15:42:37.847Z,97812.16
2022-10-11T15:45:24.701Z,97808.66
2022-10-11T15:48:15.030Z,97804.34
2022-10-11T15:51:01.676Z,97806.00
2022-10-11T15:53:48.552Z,97798.34
2022-10-11T15:56:35.332Z,97798.34
2022-10-11T15:59:22.004Z,97804.53
2022-10-11T16:02:13.163Z,97803.69
2022-10-11T16:04:59.836Z,97801.25
2022-10-11T16:07:46.595Z,97803.09
2022-10-11T16:10:33.289Z,97799.59
2022-10-11T16:13:19.980Z,97790.69
2022-10-11T16:16:07.845Z,97798.13
2022-10-11T16:18:54.927Z,97797.31
2022-10-11T16:21:41.618Z,97797.50
2022-10-11T16:24:28.314Z,97797.72
2022-10-11T16:27:18.666Z,97798.75
2022-10-11T16:30:05.842Z,97802.44
2022-10-11T16:32:54.917Z,97810.72
2022-10-11T16:35:41.822Z,97806.38
2022-10-11T16:38:35.997Z,97815.66
2022-10-11T16:41:22.785Z,97817.50
2022-10-11T16:44:13.212Z,97815.22
2022-10-11T16:47:00.024Z,97824.31
2022-10-11T16:49:46.713Z,97820.78
2022-10-11T16:52:33.389Z,97830.06
2022-10-11T16:55:20.210Z,97828.63
2022-10-11T16:58:07.618Z,97829.66
2022-10-11T17:00:54.377Z,97827.34
2022-10-11T17:03:41.086Z,97827.56
2022-10-11T17:06:27.829Z,97826.91
2022-10-11T17:09:14.607Z,97825.44
2022-10-11T17:12:01.296Z,97823.16
2022-10-11T17:14:48.043Z,97835.97
2022-10-11T17:17:34.720Z,97839.88
2022-10-11T17:20:21.406Z,97833.03
2022-10-11T17:23:08.179Z,97830.78
2022-10-11T17:25:54.861Z,97831.19
2022-10-11T17:28:41.551Z,97835.91
2022-10-11T17:31:30.051Z,97841.66
2022-10-11T17:34:16.857Z,97838.56
2022-10-11T17:37:03.679Z,97845.97
2022-10-11T17:39:50.404Z,97835.88
2022-10-11T17:42:37.055Z,97845.94
2022-10-11T17:45:23.729Z,97840.97
2022-10-11T17:48:10.402Z,97841.38
2022-10-11T17:50:57.096Z,97844.44
2022-10-11T17:53:44.106Z,97854.53
2022-10-11T17:56:35.217Z,97843.41
2022-10-11T17:59:27.280Z,97850.19
2022-10-11T18:02:14.609Z,97854.06
2022-10-11T18:05:01.334Z,97845.41
2022-10-11T18:07:48.907Z,97856.53
2022-10-11T18:10:35.944Z,97854.22
2022-10-11T18:13:22.609Z,97849.25
2022-10-11T18:16:10.590Z,97852.16
2022-10-11T18:18:58.377Z,97851.72
2022-10-11T18:21:45.054Z,97848.41
2022-10-11T18:24:31.853Z,97840.75
2022-10-11T18:27:18.481Z,97836.81
2022-10-11T18:30:05.499Z,97829.97
2022-10-11T18:32:52.330Z,97838.44
2022-10-11T18:35:38.998Z,97833.47
2022-10-11T18:38:25.647Z,97831.34
2022-10-11T18:41:14.674Z,97829.09
2022-10-11T18:44:02.459Z,97824.13
2022-10-11T18:46:50.292Z,97829.03
2022-10-11T18:49:37.003Z,97824.88
2022-10-11T18:52:23.671Z,97818.03
2022-10-11T18:55:10.312Z,97822.94
2022-10-11T18:57:57.404Z,97816.16
2022-10-11T19:00:46.607Z,97819.22
2022-10-11T19:03:35.248Z,97817.75
2022-10-11T19:06:23.118Z,97818.94
2022-10-11T19:09:11.313Z,97823.88
2022-10-11T19:12:00.515Z,97825.28
2022-10-11T19:14:47.668Z,97836.34
2022-10-11T19:17:34.336Z,97829.56
2022-10-11T19:20:21.006Z,97826.44
2022-10-11T19:23:07.659Z,97833.66
2022-10-11T19:25:57.774Z,97840.19
2022-10-11T19:28:44.686Z,97829.06
2022-10-11T19:31:31.614Z,97822.44
2022-10-11T19:34:18.679Z,97830.00
2022-10-11T19:37:09.524Z,97829.38
2022-10-11T19:39:56.248Z,97829.75
2022-10-11T19:42:43.024Z,97836.31
2022-10-11T19:45:29.722Z,97838.19
2022-10-11T19:48:16.662Z,97841.22
2022-10-11T19:51:04.252Z,97840.56
2022-10-11T19:54:01.121Z,97841.78
2022-10-11T19:56:47.768Z,97851.03
2022-10-11T19:59:34.415Z,97847.91
2022-10-11T20:02:21.187Z,97857.13
2022-10-11T20:05:08.056Z,97856.47
2022-10-11T20:07:54.741Z,97848.84
2022-10-11T20:10:41.422Z,97850.03
2022-10-11T20:13:31.194Z,97855.97
2022-10-11T20:16:22.559Z,97855.50
2022-10-11T20:19:09.231Z,97854.03
2022-10-11T20:21:55.865Z,97852.56
2022-10-11T20:24:42.515Z,97858.28
2022-10-11T20:27:31.582Z,97860.31
2022-10-11T20:30:18.699Z,97862.53
2022-10-11T20:33:05.332Z,97865.59
2022-10-11T20:36:04.414Z,97864.09
2022-10-11T20:38:51.722Z,97859.97
2022-10-11T20:41:39.991Z,97864.03
2022-10-11T20:44:26.796Z,97867.09
2022-10-11T20:47:13.460Z,97870.13
2022-10-11T20:50:00.123Z,97860.81
2022-10-11T20:52:46.779Z,97871.69
2022-10-11T20:55:33.462Z,97873.88
2022-10-11T20:58:20.232Z,97876.72
2022-10-11T21:01:14.026Z,97882.44
2022-10-11T21:04:01.219Z,97879.09
2022-10-11T21:06:48.129Z,97883.00
2022-10-11T21:09:34.800Z,97877.19
2022-10-11T21:12:21.474Z,97868.72
2022-10-11T21:15:08.256Z,97876.28
2022-10-11T21:17:54.949Z,97885.47
2022-10-11T21:20:41.921Z,97873.13
2022-10-11T21:23:28.561Z,97874.31
2022-10-11T21:26:17.878Z,97872.00
2022-10-11T21:29:04.568Z,97862.56
2022-10-11T21:31:51.217Z,97870.72
2022-10-11T21:34:37.881Z,97870.91
2022-10-11T21:37:24.526Z,97863.28
2022-10-11T21:40:11.284Z,97864.28
2022-10-11T21:42:57.985Z,97860.31
2022-10-11T21:45:44.756Z,97852.69
2022-10-11T21:48:31.390Z,97856.53
2022-10-11T21:51:27.728Z,97854.06
2022-10-11T21:54:14.509Z,97853.41
2022-10-11T21:57:01.213Z,97846.41
2022-10-11T21:59:47.868Z,97839.25
2022-10-11T22:02:34.736Z,97844.75
2022-10-11T22:05:21.632Z,97842.06
2022-10-11T22:08:08.279Z,97840.44
2022-10-11T22:10:56.129Z,97851.28
2022-10-11T22:13:42.806Z,97854.94
2022-10-11T22:16:29.502Z,97851.47
2022-10-11T22:19:16.170Z,97857.00
2022-10-11T22:22:02.826Z,97858.84
2022-10-11T22:24:49.478Z,97859.00
2022-10-11T22:27:36.136Z,97855.50
2022-10-11T22:30:22.803Z,97848.69
2022-10-11T22:33:09.428Z,97849.69
2022-10-11T22:35:56.922Z,97850.88
2022-10-11T22:38:43.634Z,97843.06
2022-10-11T22:41:30.294Z,97838.75
2022-10-11T22:44:16.953Z,97840.97
2022-10-11T22:47:03.599Z,97844.63
2022-10-11T22:49:50.292Z,97849.31
2022-10-11T22:52:36.959Z,97846.00
2022-10-11T22:55:23.615Z,97841.50
2022-10-11T22:58:10.361Z,97833.66
2022-10-11T23:00:57.028Z,97839.81
2022-10-11T23:03:46.901Z,97832.84
2022-10-11T23:06:33.625Z,97830.16
2022-10-11T23:09:20.275Z,97839.19
2022-10-11T23:12:07.192Z,97837.34
2022-10-11T23:14:53.854Z,97832.19
2022-10-11T23:17:40.505Z,97838.53
2022-10-11T23:20:27.157Z,97831.53
2022-10-11T23:23:13.822Z,97831.72
2022-10-11T23:26:01.400Z,97831.06
2022-10-11T23:28:48.169Z,97831.91
2022-10-11T23:31:34.871Z,97825.91
2022-10-11T23:34:21.530Z,97833.09
2022-10-11T23:37:08.159Z,97839.25
2022-10-11T23:39:54.871Z,97842.94
2022-10-11T23:42:41.509Z,97847.44
2022-10-11T23:45:28.342Z,97849.28
2022-10-11T23:48:15.065Z,97848.47
2022-10-11T23:51:01.745Z,97839.63
2022-10-11T23:53:48.440Z,97838.78
2022-10-11T23:56:35.095Z,97847.78
2022-10-11T23:59:21.791Z,97853.13
